Time;durP1;ratioP1;P1;durP2;ratioP2;P2;SDS_P1;SDS_P2;PMS_P1;PMS_P2;Temp;Humidity;BMP_temperature;BMP_pressure;BME280_temperature;BME280_humidity;BME280_pressure;Samples;Min_cycle;Max_cycle;Signal;HPM_P1;HPM_P2
2023/04/15 00:00:51;;;;;;;;;;;;;;;29.68;24.83;100128.22;5056053;28;1170;-28
2023/04/15 00:03:17;;;;;;;;;;;;;;;29.82;24.60;100129.00;5056271;28;1165;-25
2023/04/15 00:05:43;;;;;;;;;;;;;;;29.74;24.59;100126.53;5056519;28;1042;-25
2023/04/15 00:08:08;;;;;;;;;;;;;;;29.04;25.20;100123.44;5060511;28;1917;-25
2023/04/15 00:10:34;;;;;;;;;;;;;;;29.39;25.29;100121.44;5046367;28;897;-26
2023/04/15 00:13:00;;;;;;;;;;;;;;;30.61;23.46;100127.03;5060279;28;1179;-27
2023/04/15 00:15:26;;;;;;;;;;;;;;;28.94;25.22;100120.28;5060219;28;1153;-27
2023/04/15 00:17:52;;;;;;;;;;;;;;;28.44;25.92;100127.81;5060336;28;1012;-28
2023/04/15 00:20:18;;;;;;;;;;;;;;;29.93;24.46;100130.19;5060392;28;1230;-28
2023/04/15 00:22:43;;;;;;;;;;;;;;;30.59;23.53;100120.16;5059726;28;928;-27
2023/04/15 00:25:09;;;;;;;;;;;;;;;29.40;24.58;100123.94;5059993;28;1079;-26
2023/04/15 00:27:34;;;;;;;;;;;;;;;28.38;25.95;100130.50;5059580;28;1988;-28
2023/04/15 00:30:00;;;;;;;;;;;;;;;29.33;25.13;100131.25;5075216;28;1163;-26
2023/04/15 00:32:26;;;;;;;;;;;;;;;30.49;23.63;100137.78;5059808;28;1115;-29
2023/04/15 00:34:52;;;;;;;;;;;;;;;30.10;24.06;100137.81;5046165;28;868;-26
2023/04/15 00:37:17;;;;;;;;;;;;;;;29.86;24.31;100145.69;5055373;28;1246;-27
2023/04/15 00:39:44;;;;;;;;;;;;;;;29.77;24.53;100138.81;5072917;28;1234;-25
2023/04/15 00:42:09;;;;;;;;;;;;;;;29.37;24.74;100135.22;5059731;28;1166;-27
2023/04/15 00:44:35;;;;;;;;;;;;;;;28.94;25.24;100141.94;5059648;28;1051;-25
2023/04/15 00:47:01;;;;;;;;;;;;;;;29.56;24.70;100132.63;5074943;28;1113;-27
2023/04/15 00:49:27;;;;;;;;;;;;;;;29.62;24.62;100141.81;5059552;28;1973;-25
2023/04/15 00:51:53;;;;;;;;;;;;;;;29.38;24.58;100142.28;5057855;28;1222;-25
2023/04/15 00:54:18;;;;;;;;;;;;;;;28.81;25.71;100138.19;5074738;28;1020;-29
2023/04/15 00:56:44;;;;;;;;;;;;;;;29.94;24.49;100144.59;5060341;28;1206;-28
2023/04/15 00:59:10;;;;;;;;;;;;;;;30.61;23.32;100148.75;5058214;28;1053;-26
2023/04/15 01:01:36;;;;;;;;;;;;;;;28.64;25.55;100150.50;5056980;28;1141;-25
2023/04/15 01:04:02;;;;;;;;;;;;;;;28.51;26.31;100144.03;5073099;28;1052;-25
2023/04/15 01:06:28;;;;;;;;;;;;;;;30.28;23.75;100147.13;5073535;28;2338;-27
2023/04/15 01:08:54;;;;;;;;;;;;;;;30.22;23.61;100154.25;5057721;28;1914;-26
2023/04/15 01:11:20;;;;;;;;;;;;;;;28.42;26.11;100148.81;5046427;28;1051;-27
2023/04/15 01:13:45;;;;;;;;;;;;;;;28.56;26.01;100146.13;5056019;28;1079;-27
2023/04/15 01:16:12;;;;;;;;;;;;;;;30.08;24.11;100145.31;5057978;28;1042;-27
2023/04/15 01:18:37;;;;;;;;;;;;;;;30.53;23.39;100138.16;5039397;28;1224;-25
2023/04/15 01:21:05;;;;;;;;;;;;;;;30.09;24.19;100140.72;5064845;28;1178;-28
2023/04/15 01:23:31;;;;;;;;;;;;;;;29.82;24.28;100145.28;5069095;28;1159;-28
2023/04/15 01:25:57;;;;;;;;;;;;;;;29.72;24.66;100144.06;5051031;28;1394;-25
2023/04/15 01:28:22;;;;;;;;;;;;;;;28.92;25.23;100144.00;5041780;28;1973;-28
2023/04/15 01:30:48;;;;;;;;;;;;;;;29.38;25.23;100142.28;5045493;28;1310;-30
2023/04/15 01:33:14;;;;;;;;;;;;;;;29.46;24.95;100141.22;5054728;28;1215;-28
2023/04/15 01:35:43;;;;;;;;;;;;;;;29.55;24.88;100136.38;5045634;28;1277;-26
2023/04/15 01:38:08;;;;;;;;;;;;;;;29.68;24.66;100133.66;5052820;28;1288;-26
2023/04/15 01:40:34;;;;;;;;;;;;;;;29.67;24.76;100134.72;5037689;28;1356;-28
2023/04/15 01:43:03;;;;;;;;;;;;;;;29.39;24.80;100130.41;5052931;28;1399;-27
2023/04/15 01:45:28;;;;;;;;;;;;;;;29.05;25.29;100127.78;5039057;28;1282;-28
2023/04/15 01:47:54;;;;;;;;;;;;;;;29.52;24.89;100139.53;5037626;28;1918;-27
2023/04/15 01:50:20;;;;;;;;;;;;;;;29.66;24.78;100149.28;5042429;28;1160;-27
2023/04/15 01:52:47;;;;;;;;;;;;;;;29.78;24.49;100146.72;5044282;28;1276;-24
2023/04/15 01:55:12;;;;;;;;;;;;;;;29.84;24.59;100138.78;5043528;28;1106;-27
2023/04/15 01:57:38;;;;;;;;;;;;;;;29.90;24.33;100136.03;5055785;28;1348;-26
2023/04/15 02:00:16;;;;;;;;;;;;;;;29.37;24.57;100137.06;5106069;27;1317;-25
2023/04/15 02:02:42;;;;;;;;;;;;;;;29.60;24.88;100135.75;5077494;28;1121;-27
2023/04/15 02:05:08;;;;;;;;;;;;;;;29.63;24.69;100129.94;5072038;28;1222;-27
2023/04/15 02:07:36;;;;;;;;;;;;;;;29.75;24.56;100139.03;5077298;28;1288;-28
2023/04/15 02:10:03;;;;;;;;;;;;;;;29.85;24.48;100137.72;5089791;28;1133;-24
2023/04/15 02:12:28;;;;;;;;;;;;;;;29.96;24.22;100141.66;5093623;28;1098;-25
2023/04/15 02:14:54;;;;;;;;;;;;;;;29.72;24.17;100149.47;5092190;28;1144;-25
2023/04/15 02:17:21;;;;;;;;;;;;;;;29.17;24.97;100144.22;5075267;28;1309;-28
2023/04/15 02:19:47;;;;;;;;;;;;;;;29.76;24.60;100146.09;5082044;28;1902;-29
2023/04/15 02:22:17;;;;;;;;;;;;;;;29.29;24.73;100151.69;5075850;28;1154;-24
2023/04/15 02:24:45;;;;;;;;;;;;;;;28.95;25.43;100147.16;5083042;28;1345;-25
2023/04/15 02:27:14;;;;;;;;;;;;;;;30.58;23.42;100153.78;5090848;28;1241;-26
2023/04/15 02:29:40;;;;;;;;;;;;;;;30.84;22.93;100144.59;5092189;28;1274;-25
2023/04/15 02:32:07;;;;;;;;;;;;;;;28.63;25.72;100141.53;5086530;28;1150;-28
2023/04/15 02:34:32;;;;;;;;;;;;;;;27.66;27.44;100142.53;5090962;28;1151;-23
2023/04/15 02:36:58;;;;;;;;;;;;;;;28.80;24.83;100138.41;5091819;28;1132;-27
2023/04/15 02:39:24;;;;;;;;;;;;;;;27.07;26.50;100132.03;5087079;28;1944;-24
2023/04/15 02:41:52;;;;;;;;;;;;;;;26.35;27.90;100133.75;5073190;28;1019;-25
2023/04/15 02:44:19;;;;;;;;;;;;;;;27.85;26.04;100132.84;5087506;28;1051;-25
2023/04/15 02:46:51;;;;;;;;;;;;;;;28.05;25.53;100129.38;5090867;28;1519;-26
2023/04/15 02:49:17;;;;;;;;;;;;;;;27.84;25.93;100137.41;5091729;28;1086;-27
2023/04/15 02:51:48;;;;;;;;;;;;;;;28.88;24.99;100129.25;5081280;28;1126;-24
2023/04/15 02:54:14;;;;;;;;;;;;;;;28.92;24.86;100128.63;5085197;28;1506;-23
2023/04/15 02:56:40;;;;;;;;;;;;;;;26.94;27.41;100136.31;5082005;28;1213;-23
2023/04/15 02:59:06;;;;;;;;;;;;;;;26.17;28.41;100134.97;5085303;28;1910;-25
2023/04/15 03:01:31;;;;;;;;;;;;;;;27.33;26.43;100144.03;5087174;28;1344;-25
2023/04/15 03:03:57;;;;;;;;;;;;;;;25.94;28.76;100137.00;5073831;28;1244;-25
2023/04/15 03:06:23;;;;;;;;;;;;;;;25.65;29.18;100139.56;5082923;28;1133;-28
2023/04/15 03:08:49;;;;;;;;;;;;;;;27.35;26.61;100136.56;5086232;28;1109;-24
2023/04/15 03:11:15;;;;;;;;;;;;;;;27.49;26.39;100141.00;5072910;28;894;-25
2023/04/15 03:13:42;;;;;;;;;;;;;;;25.57;29.30;100135.09;5072583;28;1038;-27
2023/04/15 03:16:18;;;;;;;;;;;;;;;25.24;29.56;100133.63;5070483;28;1118;-27
2023/04/15 03:18:43;;;;;;;;;;;;;;;25.85;28.65;100141.66;5065155;28;1895;-25
2023/04/15 03:21:09;;;;;;;;;;;;;;;25.36;29.47;100135.88;5078781;28;1134;-26
2023/04/15 03:23:36;;;;;;;;;;;;;;;24.58;30.83;100138.59;5063671;28;1182;-26
2023/04/15 03:26:02;;;;;;;;;;;;;;;25.34;29.76;100132.53;5064231;28;1360;-25
2023/04/15 03:28:29;;;;;;;;;;;;;;;25.38;29.44;100128.41;5076520;28;1232;-25
2023/04/15 03:30:56;;;;;;;;;;;;;;;24.54;30.75;100128.38;5077694;28;1151;-26
2023/04/15 03:33:21;;;;;;;;;;;;;;;23.92;31.91;100115.66;5078755;28;1088;-26
2023/04/15 03:35:47;;;;;;;;;;;;;;;26.90;27.66;100122.38;5078412;28;957;-25
2023/04/15 03:38:12;;;;;;;;;;;;;;;27.58;26.17;100117.34;5057315;28;1906;-29
2023/04/15 03:40:40;;;;;;;;;;;;;;;27.97;25.50;100125.84;5071396;28;1097;-26
2023/04/15 03:43:05;;;;;;;;;;;;;;;28.19;25.12;100130.25;5081646;28;1166;-26
2023/04/15 03:45:31;;;;;;;;;;;;;;;28.41;24.92;100130.09;5075747;28;954;-26
2023/04/15 03:47:56;;;;;;;;;;;;;;;25.37;28.99;100135.69;5072764;28;875;-26
2023/04/15 03:50:22;;;;;;;;;;;;;;;24.37;31.09;100133.91;5075702;28;1221;-27
2023/04/15 03:52:48;;;;;;;;;;;;;;;23.96;32.21;100127.72;5071803;28;1103;-24
2023/04/15 03:55:14;;;;;;;;;;;;;;;24.08;31.91;100132.69;5072260;28;1018;-26
2023/04/15 03:57:40;;;;;;;;;;;;;;;23.07;33.89;100139.47;5058182;28;1007;-23
2023/04/15 04:00:06;;;;;;;;;;;;;;;23.27;33.34;100139.91;5089374;28;1909;-25
2023/04/15 04:02:37;;;;;;;;;;;;;;;24.49;31.17;100146.91;5090507;28;1098;-24
2023/04/15 04:05:03;;;;;;;;;;;;;;;23.45;32.82;100144.25;5078021;28;1121;-23
2023/04/15 04:07:28;;;;;;;;;;;;;;;23.30;33.15;100142.25;5078212;28;1094;-24
2023/04/15 04:09:56;;;;;;;;;;;;;;;24.95;30.63;100140.66;5078139;28;1113;-29
2023/04/15 04:12:22;;;;;;;;;;;;;;;27.15;27.11;100139.97;5090214;28;928;-23
2023/04/15 04:14:47;;;;;;;;;;;;;;;25.88;28.41;100144.81;5090903;28;1035;-24
2023/04/15 04:17:13;;;;;;;;;;;;;;;24.31;31.21;100142.66;5085638;28;1099;-26
2023/04/15 04:19:38;;;;;;;;;;;;;;;24.48;31.04;100145.22;5084316;28;2015;-24
2023/04/15 04:22:04;;;;;;;;;;;;;;;27.23;26.78;100149.78;5089368;28;1081;-26
2023/04/15 04:24:30;;;;;;;;;;;;;;;26.53;27.58;100149.47;5090848;28;909;-24
2023/04/15 04:26:56;;;;;;;;;;;;;;;25.59;29.50;100151.06;5078072;28;1030;-23
2023/04/15 04:29:22;;;;;;;;;;;;;;;25.78;29.45;100153.22;5077014;28;1074;-26
2023/04/15 04:31:48;;;;;;;;;;;;;;;25.44;29.66;100166.22;5097253;28;1029;-23
2023/04/15 04:34:13;;;;;;;;;;;;;;;25.53;29.65;100158.03;5097529;28;1097;-26
2023/04/15 04:36:39;;;;;;;;;;;;;;;25.58;29.70;100157.47;5088072;28;1152;-24
2023/04/15 04:39:05;;;;;;;;;;;;;;;25.63;29.72;100153.22;5096587;28;1898;-26
2023/04/15 04:41:31;;;;;;;;;;;;;;;25.61;29.40;100152.53;5097307;28;1003;-23
2023/04/15 04:43:56;;;;;;;;;;;;;;;26.64;28.32;100156.19;5083383;28;1194;-24
2023/04/15 04:46:22;;;;;;;;;;;;;;;26.28;28.45;100152.50;5097681;28;1053;-24
2023/04/15 04:48:48;;;;;;;;;;;;;;;25.87;29.23;100158.50;5092888;28;940;-25
2023/04/15 04:51:13;;;;;;;;;;;;;;;25.66;29.44;100152.84;5087846;28;1178;-23
2023/04/15 04:53:39;;;;;;;;;;;;;;;26.99;27.59;100152.72;5092966;28;1042;-23
2023/04/15 04:56:05;;;;;;;;;;;;;;;26.06;28.92;100154.34;5087799;28;1055;-27
2023/04/15 04:58:31;;;;;;;;;;;;;;;25.76;29.30;100154.41;5097001;28;2002;-24
2023/04/15 05:00:57;;;;;;;;;;;;;;;25.65;29.59;100158.44;5096376;28;847;-24
2023/04/15 05:03:22;;;;;;;;;;;;;;;26.57;28.30;100157.16;5083696;28;1422;-23
2023/04/15 05:05:48;;;;;;;;;;;;;;;25.82;29.39;100152.84;5067930;28;1135;-24
2023/04/15 05:08:14;;;;;;;;;;;;;;;25.72;29.65;100148.59;5080749;28;1137;-23
2023/04/15 05:10:40;;;;;;;;;;;;;;;25.83;29.72;100154.50;5097056;28;1047;-24
2023/04/15 05:13:05;;;;;;;;;;;;;;;26.28;28.88;100155.22;5092201;28;929;-23
2023/04/15 05:15:32;;;;;;;;;;;;;;;26.15;29.01;100152.38;5076799;28;1109;-25
2023/04/15 05:17:57;;;;;;;;;;;;;;;26.09;29.16;100147.75;5089847;28;1906;-24
2023/04/15 05:20:23;;;;;;;;;;;;;;;26.01;29.14;100154.91;5076403;28;1046;-23
2023/04/15 05:22:49;;;;;;;;;;;;;;;26.70;28.15;100149.19;5080172;28;1039;-22
2023/04/15 05:25:15;;;;;;;;;;;;;;;26.29;28.33;100156.06;5077951;28;1015;-24
2023/04/15 05:27:40;;;;;;;;;;;;;;;26.22;28.86;100161.38;5089542;28;1206;-23
2023/04/15 05:30:07;;;;;;;;;;;;;;;26.61;28.48;100166.56;5082259;28;1221;-24
2023/04/15 05:32:33;;;;;;;;;;;;;;;26.46;28.49;100170.13;5096143;28;1041;-23
2023/04/15 05:34:58;;;;;;;;;;;;;;;26.36;28.65;100169.63;5077504;28;1015;-25
2023/04/15 05:37:24;;;;;;;;;;;;;;;26.21;28.61;100172.34;5083978;28;1090;-24
2023/04/15 05:39:50;;;;;;;;;;;;;;;26.74;28.40;100196.31;5076009;28;1902;-24
2023/04/15 05:42:16;;;;;;;;;;;;;;;26.48;28.21;100202.31;5088992;28;1143;-24
2023/04/15 05:44:42;;;;;;;;;;;;;;;26.28;28.87;100213.69;5096429;28;1094;-24
2023/04/15 05:47:08;;;;;;;;;;;;;;;26.14;29.03;100207.31;5096025;28;1081;-23
2023/04/15 05:49:34;;;;;;;;;;;;;;;26.97;27.82;100219.56;5090525;28;1007;-23
2023/04/15 05:52:00;;;;;;;;;;;;;;;26.51;27.85;100228.88;5088375;28;1094;-23
2023/04/15 05:54:26;;;;;;;;;;;;;;;26.31;28.39;100228.66;5076744;28;1153;-24
2023/04/15 05:56:52;;;;;;;;;;;;;;;26.22;28.79;100236.88;5075881;28;1165;-25
2023/04/15 05:59:18;;;;;;;;;;;;;;;26.90;28.19;100251.91;5094879;28;1902;-24
2023/04/15 06:01:44;;;;;;;;;;;;;;;26.25;28.68;100247.25;5096252;28;1122;-23
2023/04/15 06:04:10;;;;;;;;;;;;;;;26.11;28.73;100256.22;5085080;28;1058;-27
2023/04/15 06:06:37;;;;;;;;;;;;;;;26.03;29.02;100270.63;5083437;28;975;-24
2023/04/15 06:09:02;;;;;;;;;;;;;;;27.14;27.47;100274.13;5088345;28;1496;-24
2023/04/15 06:11:28;;;;;;;;;;;;;;;26.37;28.54;100282.69;5077177;28;1146;-26
2023/04/15 06:13:54;;;;;;;;;;;;;;;26.34;28.49;100252.56;5095575;28;1133;-24
2023/04/15 06:16:19;;;;;;;;;;;;;;;26.28;28.62;100262.22;5081809;28;1197;-23
2023/04/15 06:18:45;;;;;;;;;;;;;;;27.15;27.64;100264.19;5088248;28;1910;-24
2023/04/15 06:21:10;;;;;;;;;;;;;;;26.46;28.32;100255.63;5076825;28;1138;-28
2023/04/15 06:23:36;;;;;;;;;;;;;;;26.40;28.34;100259.91;5075112;28;1108;-23
2023/04/15 06:26:02;;;;;;;;;;;;;;;26.26;28.50;100266.94;5089383;28;1130;-26
2023/04/15 06:28:28;;;;;;;;;;;;;;;26.78;28.29;100275.03;5087870;28;1241;-23
2023/04/15 06:30:53;;;;;;;;;;;;;;;26.57;28.18;100278.53;5075816;28;1205;-27
2023/04/15 06:33:19;;;;;;;;;;;;;;;26.46;28.29;100272.63;5078229;28;1071;-23
2023/04/15 06:35:45;;;;;;;;;;;;;;;26.30;28.45;100279.03;5087873;28;1111;-24
2023/04/15 06:38:10;;;;;;;;;;;;;;;26.39;28.79;100266.34;5085792;28;1901;-23
2023/04/15 06:40:36;;;;;;;;;;;;;;;26.69;28.19;100265.41;5095555;28;1051;-24
2023/04/15 06:43:03;;;;;;;;;;;;;;;26.54;28.19;100260.91;5084135;28;1105;-24
2023/04/15 06:45:29;;;;;;;;;;;;;;;26.47;28.15;100265.38;5089346;28;1119;-26
2023/04/15 06:47:54;;;;;;;;;;;;;;;26.35;28.61;100270.41;5089597;28;1221;-24
2023/04/15 06:50:20;;;;;;;;;;;;;;;26.89;27.89;100263.72;5099700;28;1022;-24
2023/04/15 06:52:46;;;;;;;;;;;;;;;26.50;28.22;100264.97;5094320;28;1042;-23
2023/04/15 06:55:12;;;;;;;;;;;;;;;26.50;28.31;100273.91;5086554;28;1106;-26
2023/04/15 06:57:37;;;;;;;;;;;;;;;26.39;28.75;100282.50;5079258;28;1183;-23
2023/04/15 07:00:04;;;;;;;;;;;;;;;27.12;27.90;100281.63;5090948;28;1917;-24
2023/04/15 07:02:30;;;;;;;;;;;;;;;26.62;27.93;100276.13;5096455;28;1089;-24
2023/04/15 07:04:55;;;;;;;;;;;;;;;26.54;28.09;100274.38;5098980;28;1037;-23
2023/04/15 07:07:21;;;;;;;;;;;;;;;26.27;28.88;100276.72;5080386;28;1034;-25
2023/04/15 07:09:47;;;;;;;;;;;;;;;26.11;28.80;100289.38;5079375;28;1082;-24
2023/04/15 07:12:12;;;;;;;;;;;;;;;26.55;28.42;100297.63;5083312;28;1085;-23
2023/04/15 07:14:38;;;;;;;;;;;;;;;26.33;28.53;100305.66;5079886;28;1132;-25
2023/04/15 07:17:04;;;;;;;;;;;;;;;26.26;28.74;100310.94;5078852;28;1090;-26
2023/04/15 07:19:29;;;;;;;;;;;;;;;26.16;28.68;100307.69;5096770;28;1909;-28
2023/04/15 07:21:55;;;;;;;;;;;;;;;26.71;28.10;100299.25;5088884;28;1196;-24
2023/04/15 07:24:22;;;;;;;;;;;;;;;26.27;29.11;100309.09;5093030;28;1437;-24
2023/04/15 07:26:47;;;;;;;;;;;;;;;26.33;28.72;100302.13;5079532;28;1127;-24
2023/04/15 07:29:13;;;;;;;;;;;;;;;26.28;28.76;100306.19;5079472;28;1093;-27
2023/04/15 07:31:39;;;;;;;;;;;;;;;26.58;28.39;100299.94;5073977;28;1222;-28
2023/04/15 07:34:05;;;;;;;;;;;;;;;26.26;28.97;100307.41;5097683;28;1131;-24
2023/04/15 07:36:31;;;;;;;;;;;;;;;26.38;28.62;100310.47;5092600;28;1051;-26
2023/04/15 07:38:57;;;;;;;;;;;;;;;26.51;28.49;100299.00;5078077;28;1910;-24
2023/04/15 07:41:22;;;;;;;;;;;;;;;26.56;28.42;100285.78;5078380;28;1062;-25
2023/04/15 07:43:48;;;;;;;;;;;;;;;26.67;28.34;100287.16;5090482;28;1135;-22
2023/04/15 07:46:14;;;;;;;;;;;;;;;26.91;27.79;100287.81;5079570;28;1118;-24
2023/04/15 07:48:41;;;;;;;;;;;;;;;26.92;27.55;100289.50;5090351;28;1163;-24
2023/04/15 07:51:07;;;;;;;;;;;;;;;26.67;28.11;100292.56;5079340;28;1160;-23
2023/04/15 07:53:33;;;;;;;;;;;;;;;26.52;28.39;100296.16;5090290;28;1123;-25
2023/04/15 07:55:58;;;;;;;;;;;;;;;26.52;28.12;100298.84;5084566;28;1198;-24
2023/04/15 07:58:24;;;;;;;;;;;;;;;26.55;28.54;100307.56;5085137;28;1909;-25
2023/04/15 08:00:50;;;;;;;;;;;;;;;26.97;27.90;100305.09;5091196;28;1086;-26
2023/04/15 08:03:16;;;;;;;;;;;;;;;26.60;28.47;100311.38;5079073;28;1143;-24
2023/04/15 08:05:41;;;;;;;;;;;;;;;26.55;28.47;100319.19;5096676;28;1181;-23
2023/04/15 08:08:07;;;;;;;;;;;;;;;26.36;28.33;100310.69;5094702;28;1058;-29
2023/04/15 08:10:33;;;;;;;;;;;;;;;26.48;28.43;100312.88;5097681;28;1051;-23
2023/04/15 08:12:58;;;;;;;;;;;;;;;27.06;27.92;100303.97;5075412;28;1174;-26
2023/04/15 08:15:24;;;;;;;;;;;;;;;26.43;28.69;100305.38;5078603;28;1077;-24
2023/04/15 08:17:50;;;;;;;;;;;;;;;26.46;28.87;100310.38;5083099;28;1131;-26
2023/04/15 08:20:15;;;;;;;;;;;;;;;26.54;28.71;100317.53;5096179;28;1905;-23
2023/04/15 08:22:41;;;;;;;;;;;;;;;26.56;28.63;100301.97;5092513;28;1117;-23
2023/04/15 08:25:07;;;;;;;;;;;;;;;26.92;28.35;100297.59;5082665;28;1090;-23
2023/04/15 08:27:33;;;;;;;;;;;;;;;26.92;28.03;100289.50;5093307;28;1010;-24
2023/04/15 08:29:59;;;;;;;;;;;;;;;26.78;28.24;100291.22;5090508;28;1089;-25
2023/04/15 08:32:25;;;;;;;;;;;;;;;26.67;28.05;100275.53;5086937;28;1051;-24
2023/04/15 08:34:51;;;;;;;;;;;;;;;26.75;28.36;100283.50;5095897;28;1051;-25
2023/04/15 08:37:16;;;;;;;;;;;;;;;26.70;28.15;100294.03;5085833;28;1114;-26
2023/04/15 08:39:44;;;;;;;;;;;;;;;26.84;27.56;100305.81;5083907;28;1914;-23
2023/04/15 08:42:16;;;;;;;;;;;;;;;26.80;27.83;100313.44;5097264;28;1113;-24
2023/04/15 08:44:41;;;;;;;;;;;;;;;26.76;27.99;100310.28;5083796;28;1095;-24
2023/04/15 08:47:07;;;;;;;;;;;;;;;26.72;28.41;100310.88;5083042;28;1033;-23
2023/04/15 08:49:34;;;;;;;;;;;;;;;27.08;27.78;100306.47;5083800;28;996;-24
2023/04/15 08:52:00;;;;;;;;;;;;;;;26.80;28.39;100315.31;5083945;28;1129;-23
2023/04/15 08:54:26;;;;;;;;;;;;;;;27.01;27.92;100312.66;5061005;28;1123;-25
2023/04/15 08:56:52;;;;;;;;;;;;;;;26.86;28.23;100311.88;5089938;28;1178;-24
2023/04/15 08:59:20;;;;;;;;;;;;;;;26.93;28.06;100320.84;5086697;28;1962;-24
2023/04/15 09:01:45;;;;;;;;;;;;;;;27.00;28.12;100312.81;5076502;28;1054;-23
2023/04/15 09:04:11;;;;;;;;;;;;;;;27.14;27.70;100311.13;5076623;28;1124;-24
2023/04/15 09:06:37;;;;;;;;;;;;;;;27.12;27.60;100310.47;5090339;28;1127;-29
2023/04/15 09:09:02;;;;;;;;;;;;;;;27.09;27.59;100316.25;5064210;28;1673;-25
2023/04/15 09:11:30;;;;;;;;;;;;;;;27.14;27.75;100311.13;5089861;28;1126;-23
2023/04/15 09:13:55;;;;;;;;;;;;;;;27.15;27.79;100312.78;5091090;28;1130;-23
2023/04/15 09:16:21;;;;;;;;;;;;;;;27.17;27.43;100316.13;5096137;28;1026;-24
2023/04/15 09:18:46;;;;;;;;;;;;;;;27.20;27.38;100317.59;5080194;28;1913;-23
2023/04/15 09:21:13;;;;;;;;;;;;;;;27.18;27.56;100325.88;5076645;28;1063;-23
2023/04/15 09:23:39;;;;;;;;;;;;;;;27.20;27.50;100328.38;5083557;28;1088;-24
2023/04/15 09:26:05;;;;;;;;;;;;;;;27.20;27.83;100323.84;5095960;28;1491;-25
2023/04/15 09:28:30;;;;;;;;;;;;;;;27.36;27.49;100319.19;5088372;28;1210;-22
2023/04/15 09:30:56;;;;;;;;;;;;;;;27.36;27.29;100316.50;5076051;28;1050;-23
2023/04/15 09:33:22;;;;;;;;;;;;;;;27.38;27.18;100312.56;5095977;28;1181;-23
2023/04/15 09:36:03;;;;;;;;;;;;;;;27.28;27.16;100311.25;5096404;28;975;-26
2023/04/15 09:38:29;;;;;;;;;;;;;;;27.26;27.24;100314.94;5095566;28;1930;-24
2023/04/15 09:40:56;;;;;;;;;;;;;;;27.19;27.34;100315.94;5082801;28;1130;-25
2023/04/15 09:43:21;;;;;;;;;;;;;;;27.20;27.82;100320.28;5096202;28;1055;-23
2023/04/15 09:45:50;;;;;;;;;;;;;;;27.17;27.78;100318.81;5094413;28;1038;-24
2023/04/15 09:48:16;;;;;;;;;;;;;;;27.24;27.96;100319.69;5076021;28;1103;-24
2023/04/15 09:50:42;;;;;;;;;;;;;;;27.22;27.80;100318.25;5078080;28;1066;-23
2023/04/15 09:53:09;;;;;;;;;;;;;;;27.25;27.39;100315.16;5096388;28;1014;-25
2023/04/15 09:55:34;;;;;;;;;;;;;;;27.23;27.43;100320.75;5082797;28;939;-27
2023/04/15 09:58:00;;;;;;;;;;;;;;;27.24;27.54;100321.59;5095663;28;1180;-24
2023/04/15 10:00:26;;;;;;;;;;;;;;;27.13;27.72;100323.78;5080087;28;1983;-24
2023/04/15 10:02:51;;;;;;;;;;;;;;;27.13;27.58;100326.47;5084294;28;866;-24
2023/04/15 10:05:17;;;;;;;;;;;;;;;27.24;27.81;100321.59;5077283;28;1118;-25
2023/04/15 10:07:42;;;;;;;;;;;;;;;27.03;27.85;100317.84;5095976;28;1071;-24
2023/04/15 10:10:08;;;;;;;;;;;;;;;26.88;27.90;100312.47;5063491;28;1245;-23
2023/04/15 10:12:36;;;;;;;;;;;;;;;27.23;27.56;100304.53;5084064;28;1107;-25
2023/04/15 10:15:03;;;;;;;;;;;;;;;27.51;27.00;100314.53;5090493;28;876;-23
2023/04/15 10:17:32;;;;;;;;;;;;;;;27.44;27.38;100320.91;5084235;28;1193;-25
2023/04/15 10:19:59;;;;;;;;;;;;;;;27.56;26.81;100319.34;5077745;28;1909;-22
2023/04/15 10:22:25;;;;;;;;;;;;;;;27.67;26.69;100320.66;5080707;28;1170;-25
2023/04/15 10:24:50;;;;;;;;;;;;;;;27.61;26.93;100318.75;5069217;28;1104;-24
2023/04/15 10:27:16;;;;;;;;;;;;;;;27.61;26.68;100316.88;5097495;28;924;-24
2023/04/15 10:29:42;;;;;;;;;;;;;;;27.69;26.44;100315.94;5093129;28;1158;-25
2023/04/15 10:32:07;;;;;;;;;;;;;;;27.73;26.53;100310.94;5082070;28;1186;-27
2023/04/15 10:34:33;;;;;;;;;;;;;;;27.68;26.63;100313.38;5079383;28;1066;-24
2023/04/15 10:37:02;;;;;;;;;;;;;;;27.61;26.62;100314.19;5070863;28;1226;-23
2023/04/15 10:39:38;;;;;;;;;;;;;;;27.63;26.63;100322.94;5080613;28;1981;-24
2023/04/15 10:42:06;;;;;;;;;;;;;;;27.60;26.68;100308.97;5088288;28;1149;-23
2023/04/15 10:44:32;;;;;;;;;;;;;;;27.41;27.47;100307.81;5092961;28;1086;-26
2023/04/15 10:46:57;;;;;;;;;;;;;;;27.25;27.50;100307.03;5080715;28;1233;-27
2023/04/15 10:49:24;;;;;;;;;;;;;;;27.18;27.80;100300.75;5092914;28;1143;-23
2023/04/15 10:51:53;;;;;;;;;;;;;;;27.27;27.44;100307.69;5081952;28;1011;-23
2023/04/15 10:54:25;;;;;;;;;;;;;;;27.31;27.62;100306.25;5061488;28;1152;-24
2023/04/15 10:56:51;;;;;;;;;;;;;;;27.26;27.51;100301.44;5083437;28;987;-26
2023/04/15 10:59:16;;;;;;;;;;;;;;;27.28;27.29;100303.94;5097854;28;1987;-24
2023/04/15 11:01:52;;;;;;;;;;;;;;;27.22;27.32;100305.59;5092693;28;1129;-24
2023/04/15 11:04:37;;;;;;;;;;;;;;;27.22;27.70;100307.44;5095526;28;1197;-26
2023/04/15 11:07:05;;;;;;;;;;;;;;;27.22;27.35;100302.88;5088130;28;1060;-23
2023/04/15 11:09:34;;;;;;;;;;;;;;;27.17;27.47;100299.09;5096131;28;1190;-24
2023/04/15 11:12:09;;;;;;;;;;;;;;;27.22;27.39;100299.34;5080186;28;988;-24
2023/04/15 11:14:42;;;;;;;;;;;;;;;27.32;27.67;100309.81;5091825;28;1030;-24
2023/04/15 11:17:07;;;;;;;;;;;;;;;27.28;27.75;100300.44;5091153;28;1111;-23
2023/04/15 11:19:37;;;;;;;;;;;;;;;27.29;27.54;100305.63;5074207;28;1914;-23
2023/04/15 11:22:09;;;;;;;;;;;;;;;27.22;27.33;100305.59;5079170;28;1309;-24
2023/04/15 11:24:35;;;;;;;;;;;;;;;27.34;27.28;100310.44;5097643;28;1233;-23
2023/04/15 11:27:01;;;;;;;;;;;;;;;27.32;27.05;100304.41;5090462;28;1276;-23
2023/04/15 11:29:30;;;;;;;;;;;;;;;27.34;27.38;100310.44;5079086;28;1166;-22
2023/04/15 11:32:06;;;;;;;;;;;;;;;27.23;27.44;100299.13;5090222;28;1074;-24
2023/04/15 11:34:32;;;;;;;;;;;;;;;27.30;27.21;100301.91;5092207;28;1253;-26
2023/04/15 11:36:57;;;;;;;;;;;;;;;27.15;27.29;100296.56;5088479;28;1186;-24
2023/04/15 11:39:23;;;;;;;;;;;;;;;27.16;27.31;100295.53;5094688;28;1963;-28
2023/04/15 11:41:48;;;;;;;;;;;;;;;27.18;27.65;100298.88;5085868;28;1117;-23
2023/04/15 11:44:17;;;;;;;;;;;;;;;27.19;27.44;100300.56;5097509;28;1082;-24
2023/04/15 11:46:42;;;;;;;;;;;;;;;27.06;27.63;100301.25;5078681;28;1047;-24
2023/04/15 11:49:08;;;;;;;;;;;;;;;26.95;27.79;100301.75;5092543;28;1232;-23
2023/04/15 11:51:34;;;;;;;;;;;;;;;26.98;28.01;100299.50;5090569;28;902;-23
2023/04/15 11:53:59;;;;;;;;;;;;;;;27.01;27.99;100290.19;5092728;28;1107;-26
2023/04/15 11:56:26;;;;;;;;;;;;;;;26.96;27.95;100298.88;5090940;28;1201;-25
2023/04/15 11:58:58;;;;;;;;;;;;;;;26.86;28.10;100287.56;5091183;28;1914;-23
2023/04/15 12:01:38;;;;;;;;;;;;;;;26.81;28.30;100290.81;5077880;28;1135;-24
2023/04/15 12:04:14;;;;;;;;;;;;;;;26.94;27.65;100281.19;5075439;28;865;-22
2023/04/15 12:06:40;;;;;;;;;;;;;;;27.00;28.11;100275.88;5090624;28;1119;-23
2023/04/15 12:09:05;;;;;;;;;;;;;;;26.92;27.85;100275.16;5084090;28;1109;-25
2023/04/15 12:11:38;;;;;;;;;;;;;;;26.87;27.89;100279.28;5085687;28;1131;-23
2023/04/15 12:14:05;;;;;;;;;;;;;;;26.85;28.11;100273.25;5090990;28;1718;-22
2023/04/15 12:16:31;;;;;;;;;;;;;;;26.85;28.15;100270.53;5091197;28;1193;-25
2023/04/15 12:18:57;;;;;;;;;;;;;;;26.88;28.22;100269.31;5097612;28;1973;-22
2023/04/15 12:21:27;;;;;;;;;;;;;;;26.89;28.14;100273.69;5098192;28;995;-25
2023/04/15 12:23:53;;;;;;;;;;;;;;;26.82;28.06;100267.38;5077459;28;1019;-22
2023/04/15 12:26:24;;;;;;;;;;;;;;;26.82;28.02;100262.84;5077625;28;1124;-23
2023/04/15 12:28:52;;;;;;;;;;;;;;;26.88;27.92;100264.75;5088649;28;1079;-24
2023/04/15 12:31:18;;;;;;;;;;;;;;;26.77;27.80;100268.81;5090746;28;1059;-22
2023/04/15 12:33:47;;;;;;;;;;;;;;;26.72;27.99;100268.56;5068602;28;1157;-23
2023/04/15 12:36:12;;;;;;;;;;;;;;;26.80;28.28;100272.97;5080989;28;1030;-22
2023/04/15 12:38:38;;;;;;;;;;;;;;;26.82;27.82;100268.22;5077116;28;1989;-23
2023/04/15 12:41:03;;;;;;;;;;;;;;;26.84;28.27;100273.44;5090608;28;1119;-22
2023/04/15 12:43:29;;;;;;;;;;;;;;;26.79;28.24;100276.72;5085653;28;801;-23